Terminal Aerodrome Forecast
Issued by NWS

Home | Current Version | Previous Version | Text Only | Print | Product List | Glossary On
Versions: 1 2 3 4 5 6 7 8 9 10 11 12 13 14 15 16 17 18 19
000
FTUS45 KCYS 291141
TAFAIA
TAF
KAIA 291141Z 2912/3012 30009KT P6SM SKC
     FM291700 34014G20KT P6SM SCT080
     FM300000 03010KT P6SM VCTS SCT060CB BKN120
     FM300400 05007KT P6SM SCT050
     FM300900 VRB03KT P6SM SCT015 BKN025=

USA.gov is the U.S. government's official web portal to all federal, state and local government web resources and services.